sensor_id;sensor_type;location;lat;lon;timestamp;pressure;altitude;pressure_sealevel;temperature;humidity
29549;BME280;16487;53.094;8.800;2023-04-07T00:00:47;101735.59;;;7.16;100.00
29549;BME280;16487;53.094;8.800;2023-04-07T00:03:15;101725.31;;;7.13;100.00
29549;BME280;16487;53.094;8.800;2023-04-07T00:05:42;101729.25;;;7.05;100.00
29549;BME280;16487;53.094;8.800;2023-04-07T00:08:10;101724.91;;;7.04;100.00
29549;BME280;16487;53.094;8.800;2023-04-07T00:10:37;101730.84;;;7.03;100.00
29549;BME280;16487;53.094;8.800;2023-04-07T00:13:05;101729.25;;;7.02;100.00
29549;BME280;16487;53.094;8.800;2023-04-07T00:15:32;101718.16;;;7.02;100.00
29549;BME280;16487;53.094;8.800;2023-04-07T00:18:01;101715.78;;;6.93;100.00
29549;BME280;16487;53.094;8.800;2023-04-07T00:20:28;101724.47;;;6.84;100.00
29549;BME280;16487;53.094;8.800;2023-04-07T00:22:56;101723.69;;;6.87;100.00
29549;BME280;16487;53.094;8.800;2023-04-07T00:25:23;101721.31;;;6.82;100.00
29549;BME280;16487;53.094;8.800;2023-04-07T00:27:51;101716.56;;;6.83;100.00
29549;BME280;16487;53.094;8.800;2023-04-07T00:30:19;101719.72;;;6.81;100.00
29549;BME280;16487;53.094;8.800;2023-04-07T00:32:46;101727.63;;;6.79;100.00
29549;BME280;16487;53.094;8.800;2023-04-07T00:35:15;101732.38;;;6.72;100.00
29549;BME280;16487;53.094;8.800;2023-04-07T00:37:43;101729.22;;;6.66;100.00
29549;BME280;16487;53.094;8.800;2023-04-07T00:40:11;101729.97;;;6.63;100.00
29549;BME280;16487;53.094;8.800;2023-04-07T00:42:38;101731.56;;;6.54;100.00
29549;BME280;16487;53.094;8.800;2023-04-07T00:45:07;101727.56;;;6.51;100.00
29549;BME280;16487;53.094;8.800;2023-04-07T00:47:35;101720.47;;;6.50;100.00
29549;BME280;16487;53.094;8.800;2023-04-07T00:50:03;101719.25;;;6.44;100.00
29549;BME280;16487;53.094;8.800;2023-04-07T00:52:32;101724.41;;;6.46;100.00
29549;BME280;16487;53.094;8.800;2023-04-07T00:55:00;101729.16;;;6.45;100.00
29549;BME280;16487;53.094;8.800;2023-04-07T00:57:28;101728.34;;;6.41;100.00
29549;BME280;16487;53.094;8.800;2023-04-07T00:59:56;101731.50;;;6.43;100.00
29549;BME280;16487;53.094;8.800;2023-04-07T01:02:30;101729.06;;;6.24;100.00
29549;BME280;16487;53.094;8.800;2023-04-07T01:05:08;101729.09;;;6.28;100.00
29549;BME280;16487;53.094;8.800;2023-04-07T01:07:49;101731.06;;;6.31;100.00
29549;BME280;16487;53.094;8.800;2023-04-07T01:10:26;101725.06;;;6.18;100.00
29549;BME280;16487;53.094;8.800;2023-04-07T01:13:05;101729.44;;;6.16;100.00
29549;BME280;16487;53.094;8.800;2023-04-07T01:15:34;101714.81;;;6.22;100.00
29549;BME280;16487;53.094;8.800;2023-04-07T01:18:10;101717.16;;;6.17;100.00
29549;BME280;16487;53.094;8.800;2023-04-07T01:20:39;101723.94;;;6.23;100.00
29549;BME280;16487;53.094;8.800;2023-04-07T01:23:17;101725.09;;;6.22;100.00
29549;BME280;16487;53.094;8.800;2023-04-07T01:25:59;101716.00;;;6.14;100.00
29549;BME280;16487;53.094;8.800;2023-04-07T01:28:55;101716.78;;;6.11;100.00
29549;BME280;16487;53.094;8.800;2023-04-07T01:31:25;101717.16;;;6.17;100.00
29549;BME280;16487;53.094;8.800;2023-04-07T01:33:55;101722.69;;;6.13;100.00
29549;BME280;16487;53.094;8.800;2023-04-07T01:36:25;101724.22;;;5.97;100.00
29549;BME280;16487;53.094;8.800;2023-04-07T01:38:54;101720.69;;;6.03;100.00
29549;BME280;16487;53.094;8.800;2023-04-07T01:41:22;101723.78;;;5.95;100.00
29549;BME280;16487;53.094;8.800;2023-04-07T01:43:51;101720.22;;;5.94;100.00
29549;BME280;16487;53.094;8.800;2023-04-07T01:46:20;101710.38;;;5.97;100.00
29549;BME280;16487;53.094;8.800;2023-04-07T01:48:49;101711.19;;;5.97;100.00
29549;BME280;16487;53.094;8.800;2023-04-07T01:51:19;101708.38;;;5.90;100.00
29549;BME280;16487;53.094;8.800;2023-04-07T01:53:47;101721.78;;;5.88;100.00
29549;BME280;16487;53.094;8.800;2023-04-07T01:56:15;101714.28;;;5.89;100.00
29549;BME280;16487;53.094;8.800;2023-04-07T01:58:47;101714.66;;;5.87;100.00
29549;BME280;16487;53.094;8.800;2023-04-07T02:01:20;101716.59;;;5.79;100.00
29549;BME280;16487;53.094;8.800;2023-04-07T02:03:53;101719.41;;;5.83;100.00
29549;BME280;16487;53.094;8.800;2023-04-07T02:06:26;101714.66;;;5.87;100.00
29549;BME280;16487;53.094;8.800;2023-04-07T02:08:58;101718.53;;;5.79;100.00
29549;BME280;16487;53.094;8.800;2023-04-07T02:11:26;101715.78;;;5.79;100.00
29549;BME280;16487;53.094;8.800;2023-04-07T02:14:00;101713.88;;;5.83;100.00
29549;BME280;16487;53.094;8.800;2023-04-07T02:16:33;101711.06;;;5.79;100.00
29549;BME280;16487;53.094;8.800;2023-04-07T02:19:03;101720.16;;;5.80;100.00
29549;BME280;16487;53.094;8.800;2023-04-07T02:21:32;101723.69;;;5.80;100.00
29549;BME280;16487;53.094;8.800;2023-04-07T02:24:00;101718.09;;;5.70;100.00
29549;BME280;16487;53.094;8.800;2023-04-07T02:26:32;101720.84;;;5.70;100.00
29549;BME280;16487;53.094;8.800;2023-04-07T02:29:02;101715.28;;;5.63;100.00
29549;BME280;16487;53.094;8.800;2023-04-07T02:31:29;101714.50;;;5.59;100.00
29549;BME280;16487;53.094;8.800;2023-04-07T02:33:57;101712.50;;;5.59;100.00
29549;BME280;16487;53.094;8.800;2023-04-07T02:36:26;101716.84;;;5.57;100.00
29549;BME280;16487;53.094;8.800;2023-04-07T02:38:54;101720.03;;;5.59;100.00
29549;BME280;16487;53.094;8.800;2023-04-07T02:41:21;101716.00;;;5.53;100.00
29549;BME280;16487;53.094;8.800;2023-04-07T02:43:49;101725.84;;;5.43;100.00
29549;BME280;16487;53.094;8.800;2023-04-07T02:46:16;101717.53;;;5.40;100.00
29549;BME280;16487;53.094;8.800;2023-04-07T02:48:43;101722.28;;;5.46;100.00
29549;BME280;16487;53.094;8.800;2023-04-07T02:51:11;101718.69;;;5.39;100.00
29549;BME280;16487;53.094;8.800;2023-04-07T02:53:39;101723.78;;;5.30;100.00
29549;BME280;16487;53.094;8.800;2023-04-07T02:56:07;101722.13;;;5.25;100.00
29549;BME280;16487;53.094;8.800;2023-04-07T02:58:34;101720.94;;;5.23;100.00
29549;BME280;16487;53.094;8.800;2023-04-07T03:01:01;101724.44;;;5.20;100.00
29549;BME280;16487;53.094;8.800;2023-04-07T03:03:31;101727.63;;;5.22;100.00
29549;BME280;16487;53.094;8.800;2023-04-07T03:06:12;101730.81;;;5.24;100.00
29549;BME280;16487;53.094;8.800;2023-04-07T03:08:53;101726.06;;;5.21;100.00
29549;BME280;16487;53.094;8.800;2023-04-07T03:11:20;101729.19;;;5.16;100.00
29549;BME280;16487;53.094;8.800;2023-04-07T03:13:48;101724.81;;;5.15;100.00
29549;BME280;16487;53.094;8.800;2023-04-07T03:16:15;101729.19;;;5.16;100.00
29549;BME280;16487;53.094;8.800;2023-04-07T03:18:55;101732.31;;;5.11;100.00
29549;BME280;16487;53.094;8.800;2023-04-07T03:21:23;101737.06;;;5.14;100.00
29549;BME280;16487;53.094;8.800;2023-04-07T03:23:50;101730.66;;;5.06;100.00
29549;BME280;16487;53.094;8.800;2023-04-07T03:26:19;101725.03;;;4.96;100.00
29549;BME280;16487;53.094;8.800;2023-04-07T03:28:47;101719.91;;;4.94;100.00
29549;BME280;16487;53.094;8.800;2023-04-07T03:31:15;101718.00;;;5.02;100.00
29549;BME280;16487;53.094;8.800;2023-04-07T03:33:43;101715.59;;;4.97;100.00
29549;BME280;16487;53.094;8.800;2023-04-07T03:36:10;101718.75;;;4.95;100.00
29549;BME280;16487;53.094;8.800;2023-04-07T03:38:38;101723.88;;;4.97;100.00
29549;BME280;16487;53.094;8.800;2023-04-07T03:41:05;101722.22;;;4.89;100.00
29549;BME280;16487;53.094;8.800;2023-04-07T03:43:34;101720.16;;;4.79;100.00
29549;BME280;16487;53.094;8.800;2023-04-07T03:46:02;101726.94;;;4.85;100.00
29549;BME280;16487;53.094;8.800;2023-04-07T03:48:30;101726.94;;;4.85;100.00
29549;BME280;16487;53.094;8.800;2023-04-07T03:51:03;101728.44;;;4.79;100.00
29549;BME280;16487;53.094;8.800;2023-04-07T03:53:31;101731.16;;;4.75;100.00
29549;BME280;16487;53.094;8.800;2023-04-07T03:56:03;101731.53;;;4.74;100.00
29549;BME280;16487;53.094;8.800;2023-04-07T03:58:47;101735.13;;;4.78;100.00
29549;BME280;16487;53.094;8.800;2023-04-07T04:01:23;101731.94;;;4.72;100.00
29549;BME280;16487;53.094;8.800;2023-04-07T04:03:50;101737.44;;;4.72;100.00
29549;BME280;16487;53.094;8.800;2023-04-07T04:06:24;101739.75;;;4.66;100.00
29549;BME280;16487;53.094;8.800;2023-04-07T04:08:53;101734.19;;;4.63;100.00
29549;BME280;16487;53.094;8.800;2023-04-07T04:11:23;101734.06;;;4.52;100.00
29549;BME280;16487;53.094;8.800;2023-04-07T04:13:59;101744.34;;;4.55;100.00
29549;BME280;16487;53.094;8.800;2023-04-07T04:16:26;101747.13;;;4.55;100.00
29549;BME280;16487;53.094;8.800;2023-04-07T04:18:57;101746.31;;;4.51;100.00
29549;BME280;16487;53.094;8.800;2023-04-07T04:21:27;101750.28;;;4.57;100.00
29549;BME280;16487;53.094;8.800;2023-04-07T04:23:55;101740.75;;;4.48;100.00
29549;BME280;16487;53.094;8.800;2023-04-07T04:26:23;101752.94;;;4.47;100.00
29549;BME280;16487;53.094;8.800;2023-04-07T04:28:54;101754.00;;;4.35;100.00
29549;BME280;16487;53.094;8.800;2023-04-07T04:31:23;101747.66;;;4.35;100.00
29549;BME280;16487;53.094;8.800;2023-04-07T04:33:51;101749.56;;;4.27;100.00
29549;BME280;16487;53.094;8.800;2023-04-07T04:36:19;101753.38;;;4.19;100.00
29549;BME280;16487;53.094;8.800;2023-04-07T04:38:49;101749.19;;;4.29;100.00
29549;BME280;16487;53.094;8.800;2023-04-07T04:41:19;101753.47;;;4.26;100.00
29549;BME280;16487;53.094;8.800;2023-04-07T04:43:49;101756.56;;;4.21;100.00
29549;BME280;16487;53.094;8.800;2023-04-07T04:46:20;101763.22;;;4.17;100.00
29549;BME280;16487;53.094;8.800;2023-04-07T04:48:50;101768.59;;;4.06;100.00
29549;BME280;16487;53.094;8.800;2023-04-07T04:51:19;101765.09;;;4.09;100.00
29549;BME280;16487;53.094;8.800;2023-04-07T04:53:51;101771.38;;;4.06;100.00
29549;BME280;16487;53.094;8.800;2023-04-07T04:56:21;101776.88;;;4.06;100.00
29549;BME280;16487;53.094;8.800;2023-04-07T04:58:50;101770.56;;;4.06;100.00
29549;BME280;16487;53.094;8.800;2023-04-07T05:01:25;101776.81;;;4.03;100.00
29549;BME280;16487;53.094;8.800;2023-04-07T05:04:02;101767.50;;;4.14;100.00
29549;BME280;16487;53.094;8.800;2023-04-07T05:06:30;101776.44;;;4.04;100.00
29549;BME280;16487;53.094;8.800;2023-04-07T05:09:03;101775.28;;;4.05;100.00
29549;BME280;16487;53.094;8.800;2023-04-07T05:11:39;101778.25;;;3.93;100.00
29549;BME280;16487;53.094;8.800;2023-04-07T05:14:07;101782.28;;;3.99;100.00
29549;BME280;16487;53.094;8.800;2023-04-07T05:16:34;101779.97;;;4.01;100.00
29549;BME280;16487;53.094;8.800;2023-04-07T05:19:05;101783.88;;;4.00;100.00
29549;BME280;16487;53.094;8.800;2023-04-07T05:21:32;101793.75;;;4.01;100.00
29549;BME280;16487;53.094;8.800;2023-04-07T05:24:03;101794.91;;;4.00;100.00
29549;BME280;16487;53.094;8.800;2023-04-07T05:26:32;101793.31;;;3.99;100.00
29549;BME280;16487;53.094;8.800;2023-04-07T05:29:02;101793.31;;;3.99;100.00
29549;BME280;16487;53.094;8.800;2023-04-07T05:31:29;101788.56;;;3.96;100.00
29549;BME280;16487;53.094;8.800;2023-04-07T05:33:59;101794.91;;;4.00;100.00
29549;BME280;16487;53.094;8.800;2023-04-07T05:36:34;101801.19;;;3.97;100.00
29549;BME280;16487;53.094;8.800;2023-04-07T05:39:01;101798.41;;;3.97;100.00
29549;BME280;16487;53.094;8.800;2023-04-07T05:41:28;101794.56;;;4.05;100.00
29549;BME280;16487;53.094;8.800;2023-04-07T05:43:56;101803.72;;;4.09;100.00
29549;BME280;16487;53.094;8.800;2023-04-07T05:46:23;101800.63;;;4.14;100.00
29549;BME280;16487;53.094;8.800;2023-04-07T05:48:54;101801.03;;;4.16;100.00
29549;BME280;16487;53.094;8.800;2023-04-07T05:51:23;101813.41;;;4.26;100.00
29549;BME280;16487;53.094;8.800;2023-04-07T05:53:54;101807.94;;;4.33;100.00
29549;BME280;16487;53.094;8.800;2023-04-07T05:56:23;101815.16;;;4.41;100.00
29549;BME280;16487;53.094;8.800;2023-04-07T05:58:50;101819.97;;;4.47;100.00
29549;BME280;16487;53.094;8.800;2023-04-07T06:01:18;101826.34;;;4.51;100.00
29549;BME280;16487;53.094;8.800;2023-04-07T06:03:47;101829.63;;;4.60;100.00
29549;BME280;16487;53.094;8.800;2023-04-07T06:06:20;101832.44;;;4.67;100.00
29549;BME280;16487;53.094;8.800;2023-04-07T06:08:48;101835.72;;;4.77;100.00
29549;BME280;16487;53.094;8.800;2023-04-07T06:11:16;101833.88;;;4.88;100.00
29549;BME280;16487;53.094;8.800;2023-04-07T06:13:44;101837.13;;;4.97;100.00
29549;BME280;16487;53.094;8.800;2023-04-07T06:16:11;101844.66;;;5.00;100.00
29549;BME280;16487;53.094;8.800;2023-04-07T06:18:38;101845.88;;;5.06;100.00
29549;BME280;16487;53.094;8.800;2023-04-07T06:21:06;101845.97;;;5.13;100.00
29549;BME280;16487;53.094;8.800;2023-04-07T06:23:33;101850.41;;;5.21;100.00
29549;BME280;16487;53.094;8.800;2023-04-07T06:26:00;101854.06;;;5.32;100.00
29549;BME280;16487;53.094;8.800;2023-04-07T06:28:30;101856.91;;;5.42;100.00
29549;BME280;16487;53.094;8.800;2023-04-07T06:30:58;101860.56;;;5.50;100.00
29549;BME280;16487;53.094;8.800;2023-04-07T06:33:26;101866.19;;;5.60;100.00
29549;BME280;16487;53.094;8.800;2023-04-07T06:35:53;101865.09;;;5.72;100.00
29549;BME280;16487;53.094;8.800;2023-04-07T06:38:21;101859.28;;;5.84;100.00
29549;BME280;16487;53.094;8.800;2023-04-07T06:40:48;101860.13;;;5.92;100.00
29549;BME280;16487;53.094;8.800;2023-04-07T06:43:15;101866.16;;;6.04;100.00
29549;BME280;16487;53.094;8.800;2023-04-07T06:45:51;101873.75;;;6.14;100.00
29549;BME280;16487;53.094;8.800;2023-04-07T06:48:18;101873.38;;;6.19;100.00
29549;BME280;16487;53.094;8.800;2023-04-07T06:50:47;101866.66;;;6.24;100.00
29549;BME280;16487;53.094;8.800;2023-04-07T06:53:15;101865.94;;;6.30;100.00
29549;BME280;16487;53.094;8.800;2023-04-07T06:55:42;101870.00;;;6.50;100.00
29549;BME280;16487;53.094;8.800;2023-04-07T06:58:10;101873.97;;;6.56;100.00
29549;BME280;16487;53.094;8.800;2023-04-07T07:00:38;101877.22;;;6.72;100.00
29549;BME280;16487;53.094;8.800;2023-04-07T07:03:07;101873.69;;;6.79;100.00
29549;BME280;16487;53.094;8.800;2023-04-07T07:05:34;101866.22;;;6.90;100.00
29549;BME280;16487;53.094;8.800;2023-04-07T07:08:02;101874.97;;;7.03;100.00
29549;BME280;16487;53.094;8.800;2023-04-07T07:10:29;101871.81;;;7.08;100.00
29549;BME280;16487;53.094;8.800;2023-04-07T07:12:57;101874.22;;;7.16;100.00
29549;BME280;16487;53.094;8.800;2023-04-07T07:15:24;101871.47;;;7.34;100.00
29549;BME280;16487;53.094;8.800;2023-04-07T07:17:51;101877.78;;;7.34;100.00
29549;BME280;16487;53.094;8.800;2023-04-07T07:20:20;101876.66;;;7.46;100.00
29549;BME280;16487;53.094;8.800;2023-04-07T07:22:48;101877.81;;;7.52;100.00
29549;BME280;16487;53.094;8.800;2023-04-07T07:25:15;101886.16;;;7.69;100.00
29549;BME280;16487;53.094;8.800;2023-04-07T07:27:43;101886.56;;;7.78;100.00
29549;BME280;16487;53.094;8.800;2023-04-07T07:30:10;101886.97;;;7.91;100.00
29549;BME280;16487;53.094;8.800;2023-04-07T07:32:37;101886.16;;;8.08;100.00
29549;BME280;16487;53.094;8.800;2023-04-07T07:35:06;101888.13;;;8.11;100.00
29549;BME280;16487;53.094;8.800;2023-04-07T07:37:35;101894.50;;;8.08;100.00
29549;BME280;16487;53.094;8.800;2023-04-07T07:40:02;101892.13;;;8.13;100.00
29549;BME280;16487;53.094;8.800;2023-04-07T07:42:30;101897.28;;;8.26;100.00
29549;BME280;16487;53.094;8.800;2023-04-07T07:44:57;101899.66;;;8.38;100.00
29549;BME280;16487;53.094;8.800;2023-04-07T07:47:25;101898.84;;;8.44;100.00
29549;BME280;16487;53.094;8.800;2023-04-07T07:49:53;101895.63;;;8.49;100.00
29549;BME280;16487;53.094;8.800;2023-04-07T07:52:20;101887.69;;;8.58;100.00
29549;BME280;16487;53.094;8.800;2023-04-07T07:54:49;101897.97;;;8.68;100.00
29549;BME280;16487;53.094;8.800;2023-04-07T07:57:17;101897.53;;;8.80;100.00
29549;BME280;16487;53.094;8.800;2023-04-07T07:59:44;101898.63;;;8.97;100.00
29549;BME280;16487;53.094;8.800;2023-04-07T08:02:11;101894.63;;;9.08;100.00
29549;BME280;16487;53.094;8.800;2023-04-07T08:04:38;101905.66;;;9.26;100.00
29549;BME280;16487;53.094;8.800;2023-04-07T08:07:06;101896.53;;;9.25;100.00
29549;BME280;16487;53.094;8.800;2023-04-07T08:09:33;101890.53;;;9.31;100.00
29549;BME280;16487;53.094;8.800;2023-04-07T08:12:02;101889.63;;;9.44;100.00
29549;BME280;16487;53.094;8.800;2023-04-07T08:14:30;101895.03;;;9.69;100.00
29549;BME280;16487;53.094;8.800;2023-04-07T08:16:57;101892.22;;;9.72;100.00
29549;BME280;16487;53.094;8.800;2023-04-07T08:19:25;101907.34;;;9.75;100.00
29549;BME280;16487;53.094;8.800;2023-04-07T08:21:52;101896.50;;;9.84;100.00
29549;BME280;16487;53.094;8.800;2023-04-07T08:24:19;101903.22;;;9.93;100.00
29549;BME280;16487;53.094;8.800;2023-04-07T08:26:47;101900.00;;;9.95;100.00
29549;BME280;16487;53.094;8.800;2023-04-07T08:29:16;101898.53;;;9.80;100.00
29549;BME280;16487;53.094;8.800;2023-04-07T08:31:43;101905.16;;;9.96;100.00
29549;BME280;16487;53.094;8.800;2023-04-07T08:34:10;101894.03;;;9.96;100.00
29549;BME280;16487;53.094;8.800;2023-04-07T08:36:38;101885.91;;;10.16;100.00
29549;BME280;16487;53.094;8.800;2023-04-07T08:39:05;101888.50;;;10.37;100.00
29549;BME280;16487;53.094;8.800;2023-04-07T08:41:36;101900.00;;;10.39;100.00
29549;BME280;16487;53.094;8.800;2023-04-07T08:44:04;101899.75;;;10.64;100.00
29549;BME280;16487;53.094;8.800;2023-04-07T08:46:35;101886.72;;;10.87;100.00
29549;BME280;16487;53.094;8.800;2023-04-07T08:49:08;101889.59;;;10.80;100.00
29549;BME280;16487;53.094;8.800;2023-04-07T08:51:37;101891.56;;;10.83;100.00
29549;BME280;16487;53.094;8.800;2023-04-07T08:54:07;101896.84;;;10.74;100.00
29549;BME280;16487;53.094;8.800;2023-04-07T08:56:36;101898.06;;;10.73;100.00
29549;BME280;16487;53.094;8.800;2023-04-07T08:59:05;101896.78;;;10.78;100.00
29549;BME280;16487;53.094;8.800;2023-04-07T09:01:35;101893.13;;;10.84;100.00
29549;BME280;16487;53.094;8.800;2023-04-07T09:04:03;101886.19;;;10.99;100.00
29549;BME280;16487;53.094;8.800;2023-04-07T09:06:31;101881.88;;;11.21;100.00
29549;BME280;16487;53.094;8.800;2023-04-07T09:08:59;101884.47;;;11.35;100.00
29549;BME280;16487;53.094;8.800;2023-04-07T09:11:28;101877.16;;;11.18;100.00
29549;BME280;16487;53.094;8.800;2023-04-07T09:13:56;101870.25;;;11.26;100.00
29549;BME280;16487;53.094;8.800;2023-04-07T09:16:23;101880.00;;;11.41;100.00
29549;BME280;16487;53.094;8.800;2023-04-07T09:18:53;101886.78;;;11.40;100.00
29549;BME280;16487;53.094;8.800;2023-04-07T09:21:20;101883.94;;;11.44;100.00
29549;BME280;16487;53.094;8.800;2023-04-07T09:23:48;101885.44;;;11.79;100.00
29549;BME280;16487;53.094;8.800;2023-04-07T09:26:24;101888.66;;;11.77;100.00
29549;BME280;16487;53.094;8.800;2023-04-07T09:28:53;101884.47;;;12.12;100.00
29549;BME280;16487;53.094;8.800;2023-04-07T09:31:21;101881.13;;;12.40;100.00
29549;BME280;16487;53.094;8.800;2023-04-07T09:33:49;101873.44;;;12.24;100.00
29549;BME280;16487;53.094;8.800;2023-04-07T09:36:18;101869.53;;;12.22;100.00
29549;BME280;16487;53.094;8.800;2023-04-07T09:38:45;101878.13;;;12.31;100.00
29549;BME280;16487;53.094;8.800;2023-04-07T09:41:14;101879.81;;;12.48;100.00
29549;BME280;16487;53.094;8.800;2023-04-07T09:43:43;101874.97;;;12.48;100.00
29549;BME280;16487;53.094;8.800;2023-04-07T09:46:12;101863.34;;;12.53;100.00
29549;BME280;16487;53.094;8.800;2023-04-07T09:48:40;101869.63;;;12.57;100.00
29549;BME280;16487;53.094;8.800;2023-04-07T09:51:09;101868.53;;;12.71;100.00
29549;BME280;16487;53.094;8.800;2023-04-07T09:53:43;101873.00;;;12.88;100.00
29549;BME280;16487;53.094;8.800;2023-04-07T09:56:10;101863.09;;;12.84;100.00
29549;BME280;16487;53.094;8.800;2023-04-07T09:58:38;101866.16;;;13.44;100.00
29549;BME280;16487;53.094;8.800;2023-04-07T10:01:07;101854.81;;;14.44;100.00
29549;BME280;16487;53.094;8.800;2023-04-07T10:03:35;101845.69;;;15.23;100.00
29549;BME280;16487;53.094;8.800;2023-04-07T10:06:04;101830.34;;;15.99;100.00
29549;BME280;16487;53.094;8.800;2023-04-07T10:08:33;101832.03;;;16.31;100.00
29549;BME280;16487;53.094;8.800;2023-04-07T10:11:03;101829.31;;;16.40;100.00
29549;BME280;16487;53.094;8.800;2023-04-07T10:13:32;101817.97;;;15.96;100.00
29549;BME280;16487;53.094;8.800;2023-04-07T10:16:02;101816.66;;;17.18;100.00
29549;BME280;16487;53.094;8.800;2023-04-07T10:18:30;101816.03;;;17.14;100.00
29549;BME280;16487;53.094;8.800;2023-04-07T10:20:59;101803.91;;;17.35;100.00
29549;BME280;16487;53.094;8.800;2023-04-07T10:23:34;101803.69;;;17.21;100.00
29549;BME280;16487;53.094;8.800;2023-04-07T10:26:05;101817.16;;;16.86;100.00
29549;BME280;16487;53.094;8.800;2023-04-07T10:28:37;101814.63;;;17.49;100.00
29549;BME280;16487;53.094;8.800;2023-04-07T10:31:07;101813.44;;;17.77;100.00
29549;BME280;16487;53.094;8.800;2023-04-07T10:33:46;101808.47;;;17.81;100.00
29549;BME280;16487;53.094;8.800;2023-04-07T10:36:16;101825.56;;;16.55;100.00
29549;BME280;16487;53.094;8.800;2023-04-07T10:41:45;101816.13;;;16.71;100.00
29549;BME280;16487;53.094;8.800;2023-04-07T10:47:24;101828.53;;;16.82;100.00
29549;BME280;16487;53.094;8.800;2023-04-07T10:50:14;101816.72;;;17.27;100.00
29549;BME280;16487;53.094;8.800;2023-04-07T10:52:42;101813.66;;;17.43;100.00
29549;BME280;16487;53.094;8.800;2023-04-07T10:55:30;101820.16;;;16.91;100.00
29549;BME280;16487;53.094;8.800;2023-04-07T10:58:23;101810.75;;;17.25;100.00
29549;BME280;16487;53.094;8.800;2023-04-07T11:01:16;101814.88;;;17.42;100.00
29549;BME280;16487;53.094;8.800;2023-04-07T11:03:58;101817.34;;;17.62;100.00
29549;BME280;16487;53.094;8.800;2023-04-07T11:06:25;101824.72;;;17.77;100.00
29549;BME280;16487;53.094;8.800;2023-04-07T11:08:53;101803.06;;;19.01;100.00
29549;BME280;16487;53.094;8.800;2023-04-07T11:11:37;101813.19;;;18.48;100.00
29549;BME280;16487;53.094;8.800;2023-04-07T11:14:06;101819.16;;;18.32;100.00
29549;BME280;16487;53.094;8.800;2023-04-07T11:16:39;101819.53;;;17.67;100.00
29549;BME280;16487;53.094;8.800;2023-04-07T11:19:06;101817.91;;;18.42;100.00
29549;BME280;16487;53.094;8.800;2023-04-07T11:21:34;101828.41;;;18.23;100.00
29549;BME280;16487;53.094;8.800;2023-04-07T11:24:01;101824.28;;;17.88;100.00
29549;BME280;16487;53.094;8.800;2023-04-07T11:26:29;101817.06;;;18.77;100.00
29549;BME280;16487;53.094;8.800;2023-04-07T11:29:02;101811.47;;;20.08;100.00
29549;BME280;16487;53.094;8.800;2023-04-07T11:31:31;101797.25;;;20.17;100.00
29549;BME280;16487;53.094;8.800;2023-04-07T11:34:00;101812.91;;;19.14;100.00
29549;BME280;16487;53.094;8.800;2023-04-07T11:36:29;101826.56;;;19.16;100.00
29549;BME280;16487;53.094;8.800;2023-04-07T11:38:57;101813.88;;;19.02;100.00
29549;BME280;16487;53.094;8.800;2023-04-07T11:41:27;101804.53;;;20.32;100.00
29549;BME280;16487;53.094;8.800;2023-04-07T11:44:04;101810.78;;;19.66;100.00
29549;BME280;16487;53.094;8.800;2023-04-07T11:46:34;101806.59;;;19.85;100.00
29549;BME280;16487;53.094;8.800;2023-04-07T11:49:10;101806.44;;;19.79;100.00
29549;BME280;16487;53.094;8.800;2023-04-07T11:51:38;101796.81;;;20.09;100.00
29549;BME280;16487;53.094;8.800;2023-04-07T11:54:06;101805.00;;;19.60;100.00
29549;BME280;16487;53.094;8.800;2023-04-07T11:56:44;101803.22;;;19.95;100.00
29549;BME280;16487;53.094;8.800;2023-04-07T11:59:19;101799.09;;;19.49;100.00
29549;BME280;16487;53.094;8.800;2023-04-07T12:01:48;101794.19;;;20.44;100.00
29549;BME280;16487;53.094;8.800;2023-04-07T12:04:16;101785.03;;;20.64;100.00
29549;BME280;16487;53.094;8.800;2023-04-07T12:06:45;101797.72;;;20.68;100.00
29549;BME280;16487;53.094;8.800;2023-04-07T12:09:27;101793.41;;;21.16;100.00
29549;BME280;16487;53.094;8.800;2023-04-07T12:11:55;101799.31;;;20.98;100.00
29549;BME280;16487;53.094;8.800;2023-04-07T12:14:23;101803.22;;;20.19;100.00
29549;BME280;16487;53.094;8.800;2023-04-07T12:16:52;101803.53;;;20.35;100.00
29549;BME280;16487;53.094;8.800;2023-04-07T12:19:20;101805.69;;;20.02;100.00
29549;BME280;16487;53.094;8.800;2023-04-07T12:21:48;101808.53;;;20.40;100.00
29549;BME280;16487;53.094;8.800;2023-04-07T12:24:15;101796.94;;;20.68;100.00
29549;BME280;16487;53.094;8.800;2023-04-07T12:26:43;101792.16;;;20.74;100.00
29549;BME280;16487;53.094;8.800;2023-04-07T12:29:11;101792.06;;;20.83;100.00
29549;BME280;16487;53.094;8.800;2023-04-07T12:31:38;101788.75;;;20.99;100.00
29549;BME280;16487;53.094;8.800;2023-04-07T12:34:07;101781.75;;;21.29;100.00
29549;BME280;16487;53.094;8.800;2023-04-07T12:36:34;101800.41;;;20.33;100.00
29549;BME280;16487;53.094;8.800;2023-04-07T12:39:02;101786.72;;;21.34;100.00
29549;BME280;16487;53.094;8.800;2023-04-07T12:41:29;101800.19;;;21.53;100.00
29549;BME280;16487;53.094;8.800;2023-04-07T12:43:56;101796.59;;;21.73;100.00
29549;BME280;16487;53.094;8.800;2023-04-07T12:46:24;101795.19;;;21.14;100.00
29549;BME280;16487;53.094;8.800;2023-04-07T12:48:51;101804.28;;;21.03;100.00
29549;BME280;16487;53.094;8.800;2023-04-07T12:51:20;101793.72;;;21.53;100.00
29549;BME280;16487;53.094;8.800;2023-04-07T12:53:47;101790.28;;;21.84;100.00
29549;BME280;16487;53.094;8.800;2023-04-07T12:56:16;101788.50;;;22.26;100.00
29549;BME280;16487;53.094;8.800;2023-04-07T12:58:44;101811.31;;;21.08;100.00
29549;BME280;16487;53.094;8.800;2023-04-07T13:01:11;101806.53;;;20.85;100.00
29549;BME280;16487;53.094;8.800;2023-04-07T13:03:39;101810.81;;;20.66;100.00
29549;BME280;16487;53.094;8.800;2023-04-07T13:06:07;101818.94;;;20.73;100.00